Terminal Aerodrome Forecast
Issued by NWS

Home | Current Version | Previous Version | Text Only | Print | Product List | Glossary On
Versions: 1 2 3 4 5 6 7 8 9 10 11 12 13 14 15 16 17 18 19 20 21 22
000
FTUS45 KBOU 141120
TAFAPA
TAF
KAPA 141120Z 1412/1512 18009KT P6SM SCT120
     FM141700 24006KT P6SM FEW120 SCT220
     FM142000 30007KT P6SM FEW120 SCT220
     FM150200 22007KT P6SM SCT120 BKN200
     FM150600 04008KT P6SM SCT080 BKN120
     FM150900 06007KT P6SM VCSH BKN025=

USA.gov is the U.S. government's official web portal to all federal, state and local government web resources and services.